Time;durP1;ratioP1;P1;durP2;ratioP2;P2;SDS_P1;SDS_P2;PMS_P1;PMS_P2;Temp;Humidity;BMP_temperature;BMP_pressure;BME280_temperature;BME280_humidity;BME280_pressure;Samples;Min_cycle;Max_cycle;Signal;HPM_P1;HPM_P2
2021/03/16 02:01:29;;;;;;;15.57;6.00;;;3.60;99.90;;;;;;6042992;23;20469;-88
2021/03/16 02:04:14;;;;;;;14.60;5.80;;;3.60;99.90;;;;;;6082864;23;20808;-88
2021/03/16 02:07:06;;;;;;;15.70;6.60;;;3.60;99.90;;;;;;6081887;23;20398;-88
2021/03/16 02:10:18;;;;;;;18.57;5.70;;;3.60;99.90;;;;;;6080030;23;20410;-89
2021/03/16 02:13:11;;;;;;;13.93;6.87;;;3.70;99.90;;;;;;6085184;23;20399;-88
2021/03/16 02:16:02;;;;;;;18.10;6.93;;;3.70;99.90;;;;;;6121514;23;20455;-88
2021/03/16 02:18:56;;;;;;;17.13;6.07;;;3.70;99.90;;;;;;6263729;22;20480;-89
2021/03/16 02:21:43;;;;;;;15.47;6.53;;;3.80;99.90;;;;;;6264070;23;20443;-87
2021/03/16 02:24:41;;;;;;;16.90;7.30;;;3.80;99.90;;;;;;6264168;23;20914;-89
2021/03/16 02:27:31;;;;;;;19.83;6.77;;;3.80;99.90;;;;;;6263715;22;20451;-89
2021/03/16 02:30:20;;;;;;;22.67;7.80;;;3.80;99.90;;;;;;6263730;23;20503;-90
2021/03/16 02:33:13;;;;;;;20.80;7.03;;;3.90;99.90;;;;;;6263101;23;20761;-87
2021/03/16 02:36:24;;;;;;;21.30;7.73;;;4.00;99.90;;;;;;6233719;23;20447;-88
2021/03/16 02:39:49;;;;;;;;;;;;;;;;;;;;;
2021/03/16 02:46:31;;;;;;;17.90;6.80;;;4.00;99.90;;;;;;6139330;23;20444;-87
2021/03/16 02:49:21;;;;;;;18.27;6.83;;;4.00;99.90;;;;;;6312960;22;20626;-89
2021/03/16 02:52:16;;;;;;;17.73;6.97;;;4.10;99.90;;;;;;6285781;22;20393;-90
2021/03/16 02:55:03;;;;;;;16.17;6.60;;;4.10;99.90;;;;;;6295772;22;20435;-89
2021/03/16 02:57:52;;;;;;;19.93;6.47;;;4.10;99.90;;;;;;6295186;22;20530;-89
2021/03/16 03:00:39;;;;;;;24.77;6.50;;;4.20;99.90;;;;;;6294748;22;20443;-89
2021/03/16 03:03:30;;;;;;;22.20;7.00;;;4.20;99.90;;;;;;6294694;22;20476;-88
2021/03/16 03:06:17;;;;;;;18.80;6.20;;;4.20;99.90;;;;;;6295314;22;20393;-89
2021/03/16 03:09:04;;;;;;;20.93;6.20;;;4.30;99.90;;;;;;6294577;22;20428;-88
2021/03/16 03:12:00;;;;;;;21.10;7.20;;;4.30;99.90;;;;;;6295003;22;20389;-89
2021/03/16 03:14:48;;;;;;;13.40;5.50;;;4.30;99.90;;;;;;6296103;22;20420;-90
2021/03/16 03:17:35;;;;;;;18.40;6.30;;;4.40;99.90;;;;;;6294861;22;20419;-89
2021/03/16 03:20:22;;;;;;;17.13;5.73;;;4.40;99.90;;;;;;6294670;22;20393;-88
2021/03/16 03:23:11;;;;;;;24.70;6.97;;;4.40;99.90;;;;;;6294910;22;20393;-89
2021/03/16 03:26:01;;;;;;;25.00;6.27;;;4.40;99.90;;;;;;6294868;22;20412;-88
2021/03/16 03:28:55;;;;;;;16.50;5.50;;;4.40;99.90;;;;;;6284755;22;20430;-88
2021/03/16 03:31:44;;;;;;;19.00;6.37;;;4.50;99.90;;;;;;6294824;22;20875;-88
2021/03/16 03:34:33;;;;;;;13.20;6.63;;;4.40;99.90;;;;;;6294947;22;20467;-89
2021/03/16 03:37:23;;;;;;;12.87;6.10;;;4.50;99.90;;;;;;6284414;22;20443;-88
2021/03/16 03:40:12;;;;;;;19.70;6.23;;;4.60;99.90;;;;;;6295474;22;20821;-89
2021/03/16 03:43:02;;;;;;;17.42;5.53;;;4.50;99.90;;;;;;6294185;22;20484;-89
2021/03/16 03:45:53;;;;;;;20.00;5.23;;;4.60;99.90;;;;;;6292069;22;20173;-88
2021/03/16 03:48:40;;;;;;;18.50;6.03;;;4.60;99.90;;;;;;6264416;22;20436;-88
2021/03/16 03:51:31;;;;;;;16.87;4.20;;;4.60;99.90;;;;;;6265107;23;20397;-89
2021/03/16 03:54:19;;;;;;;20.73;5.73;;;4.60;99.90;;;;;;6264238;23;20409;-87
2021/03/16 03:57:06;;;;;;;17.83;6.13;;;4.60;99.90;;;;;;6263551;23;20425;-89
2021/03/16 03:59:53;;;;;;;20.93;5.67;;;4.70;99.90;;;;;;6263048;23;20708;-88
2021/03/16 04:02:40;;;;;;;22.80;7.43;;;4.60;99.90;;;;;;6263800;23;20436;-87
2021/03/16 04:05:29;;;;;;;20.93;4.93;;;4.60;99.90;;;;;;6252753;23;20393;-87
2021/03/16 04:08:17;;;;;;;16.07;4.43;;;4.70;99.90;;;;;;6262397;22;20453;-89
2021/03/16 04:11:05;;;;;;;17.53;5.87;;;4.70;99.90;;;;;;6262820;23;20442;-89
2021/03/16 04:14:08;;;;;;;;;;;;;;;;;;;;;
2021/03/16 04:21:13;;;;;;;15.67;6.83;;;4.70;99.90;;;;;;6127933;23;21076;-87
2021/03/16 04:24:01;;;;;;;9.03;3.83;;;4.70;99.90;;;;;;6141498;23;20866;-88
2021/03/16 04:26:55;;;;;;;16.47;5.10;;;4.70;99.90;;;;;;6139022;23;20450;-88
2021/03/16 04:29:52;;;;;;;;;;;;;;;;;;;;;
2021/03/16 04:43:45;;;;;;;12.60;4.60;;;4.60;99.90;;;;;;5914334;23;20429;-89
2021/03/16 04:46:33;;;;;;;15.93;4.40;;;4.60;99.90;;;;;;6113202;23;20420;-89
2021/03/16 04:49:19;;;;;;;14.03;4.50;;;4.70;99.90;;;;;;6200100;23;20494;-89
2021/03/16 04:52:06;;;;;;;13.33;3.63;;;4.70;99.90;;;;;;6200787;23;20955;-89
2021/03/16 04:54:52;;;;;;;14.53;4.30;;;4.70;99.90;;;;;;6199958;23;20463;-87
2021/03/16 04:57:41;;;;;;;14.60;4.67;;;4.70;99.90;;;;;;6199542;23;20460;-88
2021/03/16 05:00:28;;;;;;;14.63;4.97;;;4.70;99.90;;;;;;6200181;23;20469;-89
2021/03/16 05:03:14;;;;;;;15.30;4.03;;;4.70;99.90;;;;;;6199842;23;20446;-87
2021/03/16 05:06:00;;;;;;;13.20;3.80;;;4.70;99.90;;;;;;6202936;22;20426;-89
2021/03/16 05:08:46;;;;;;;15.80;4.43;;;4.70;99.90;;;;;;6294732;22;20427;-88
2021/03/16 05:11:33;;;;;;;8.67;3.80;;;4.70;99.90;;;;;;6294663;22;20454;-88
2021/03/16 05:14:19;;;;;;;11.87;3.80;;;4.70;99.90;;;;;;6294684;22;20393;-88
2021/03/16 05:17:09;;;;;;;12.87;4.17;;;4.70;99.90;;;;;;6294141;22;20432;-88
2021/03/16 05:19:55;;;;;;;17.50;4.10;;;4.70;99.90;;;;;;6294157;22;20397;-89
2021/03/16 05:22:41;;;;;;;12.73;3.50;;;4.70;99.90;;;;;;6294745;22;20396;-89
2021/03/16 05:25:27;;;;;;;8.70;3.50;;;4.70;99.90;;;;;;6296465;22;20444;-89
2021/03/16 05:28:16;;;;;;;10.47;3.33;;;4.70;99.90;;;;;;6296144;22;20427;-88
2021/03/16 05:31:01;;;;;;;9.20;3.17;;;4.80;99.90;;;;;;6296485;22;20424;-87
2021/03/16 05:33:49;;;;;;;8.10;3.40;;;4.80;99.90;;;;;;6295357;22;20392;-88
2021/03/16 05:36:35;;;;;;;10.27;3.47;;;4.80;99.90;;;;;;6295514;22;20428;-87
2021/03/16 05:39:23;;;;;;;11.87;4.00;;;4.80;99.90;;;;;;6294769;22;20431;-89
2021/03/16 05:42:12;;;;;;;7.70;3.20;;;4.80;99.90;;;;;;6284404;22;20814;-88
2021/03/16 05:45:05;;;;;;;7.03;3.13;;;4.80;99.90;;;;;;6295043;22;20397;-87
2021/03/16 05:47:53;;;;;;;7.90;3.03;;;4.80;99.90;;;;;;6294492;22;20564;-88
2021/03/16 05:50:40;;;;;;;6.60;2.53;;;4.80;99.90;;;;;;6294657;22;20399;-88
2021/03/16 05:53:27;;;;;;;5.30;2.80;;;4.90;99.90;;;;;;6293107;22;20397;-88
2021/03/16 05:56:14;;;;;;;11.00;3.23;;;4.80;99.90;;;;;;6291299;22;20470;-87
2021/03/16 05:59:00;;;;;;;7.80;2.97;;;4.90;99.90;;;;;;6292037;22;20437;-87
2021/03/16 06:01:46;;;;;;;10.03;3.07;;;4.90;99.90;;;;;;6290701;22;20401;-88
2021/03/16 06:04:31;;;;;;;7.90;2.40;;;4.90;99.90;;;;;;6291717;22;20715;-88
2021/03/16 06:07:19;;;;;;;7.37;2.50;;;4.90;99.90;;;;;;6292679;22;20384;-87
2021/03/16 06:10:06;;;;;;;7.50;2.73;;;4.90;99.90;;;;;;6292962;22;20500;-87
2021/03/16 06:12:52;;;;;;;10.87;3.83;;;4.90;99.90;;;;;;6292212;22;20502;-87
2021/03/16 06:15:42;;;;;;;9.60;2.77;;;4.90;99.90;;;;;;6292532;22;20408;-87
2021/03/16 06:18:29;;;;;;;8.57;2.87;;;4.90;99.90;;;;;;6291999;22;20950;-87
2021/03/16 06:21:20;;;;;;;8.70;3.10;;;4.90;99.90;;;;;;6291577;22;20392;-87
2021/03/16 06:24:14;;;;;;;7.40;2.77;;;4.90;99.90;;;;;;6314629;22;20432;-88
2021/03/16 06:27:01;;;;;;;8.10;2.50;;;5.00;99.90;;;;;;6291348;22;20451;-88
2021/03/16 06:30:03;;;;;;;7.97;2.70;;;5.00;99.90;;;;;;6290086;22;20387;-87
2021/03/16 06:32:53;;;;;;;6.23;2.60;;;5.00;99.90;;;;;;6294202;22;20415;-89
2021/03/16 06:35:40;;;;;;;9.07;2.40;;;5.00;99.90;;;;;;6282596;22;20475;-88
2021/03/16 06:38:26;;;;;;;5.40;2.43;;;5.00;99.90;;;;;;6291916;22;20943;-87
2021/03/16 06:41:15;;;;;;;7.45;2.63;;;5.00;99.90;;;;;;6291630;22;20476;-88
2021/03/16 06:44:02;;;;;;;7.20;2.40;;;5.20;99.90;;;;;;6293769;22;20182;-88
2021/03/16 06:46:54;;;;;;;5.00;1.90;;;5.20;99.90;;;;;;6286323;22;20428;-88
2021/03/16 06:49:42;;;;;;;5.53;2.03;;;5.20;99.90;;;;;;6292940;22;20427;-87
2021/03/16 06:52:30;;;;;;;4.13;3.03;;;5.20;99.90;;;;;;6294921;22;20774;-89
2021/03/16 06:59:12;;;;;;;5.73;2.20;;;5.40;99.90;;;;;;6149155;22;20989;-89
2021/03/16 07:10:47;;;;;;;5.40;2.50;;;5.20;99.90;;;;;;5986312;23;20429;-87
2021/03/16 07:13:35;;;;;;;4.53;2.20;;;5.20;99.90;;;;;;6023232;23;20473;-88
2021/03/16 07:16:22;;;;;;;7.33;2.87;;;5.30;99.90;;;;;;6023435;23;20457;-88
2021/03/16 07:19:09;;;;;;;5.97;2.93;;;5.30;99.90;;;;;;6125913;23;20427;-88
2021/03/16 07:21:58;;;;;;;9.30;3.40;;;5.30;99.90;;;;;;6138527;23;20409;-87
2021/03/16 07:24:44;;;;;;;9.83;3.10;;;5.30;99.90;;;;;;6265924;22;20902;-87
2021/03/16 07:27:32;;;;;;;8.67;2.10;;;5.30;99.90;;;;;;6291768;22;20925;-87
2021/03/16 07:30:27;;;;;;;8.60;3.00;;;5.30;99.90;;;;;;6292480;22;20778;-89
2021/03/16 07:33:14;;;;;;;6.83;2.50;;;5.30;99.90;;;;;;6291443;22;20394;-88
2021/03/16 07:36:02;;;;;;;4.20;1.97;;;5.40;99.90;;;;;;6292163;22;20725;-88
2021/03/16 07:38:53;;;;;;;6.30;2.40;;;5.40;99.90;;;;;;6291975;22;20470;-88
2021/03/16 07:41:41;;;;;;;4.60;1.63;;;5.40;99.90;;;;;;6291140;22;20866;-87
2021/03/16 07:44:28;;;;;;;8.33;2.50;;;5.40;99.90;;;;;;6291529;22;20390;-87
2021/03/16 07:47:16;;;;;;;5.73;1.87;;;5.40;99.90;;;;;;6291362;22;20419;-87
2021/03/16 07:50:12;;;;;;;5.37;2.00;;;5.40;99.90;;;;;;6291758;22;20456;-88
2021/03/16 07:53:00;;;;;;;7.17;2.20;;;5.40;99.90;;;;;;6292194;22;20405;-88
2021/03/16 07:55:49;;;;;;;7.27;2.87;;;5.50;99.90;;;;;;6291502;22;20501;-87
2021/03/16 07:58:43;;;;;;;8.03;2.00;;;5.50;99.90;;;;;;6291415;22;20444;-87
2021/03/16 08:01:33;;;;;;;7.63;2.97;;;5.60;99.90;;;;;;6290429;22;20448;-86
2021/03/16 08:04:19;;;;;;;9.00;2.10;;;5.50;99.90;;;;;;6290875;22;20393;-87
2021/03/16 08:07:33;;;;;;;4.80;1.70;;;5.60;99.90;;;;;;6291892;22;20387;-88
2021/03/16 08:14:35;;;;;;;9.57;2.07;;;5.60;99.90;;;;;;6245672;22;20858;-87
2021/03/16 08:17:28;;;;;;;7.60;2.53;;;5.60;99.90;;;;;;6290515;22;20523;-87
2021/03/16 08:20:29;;;;;;;8.97;3.13;;;5.60;99.90;;;;;;6289870;22;20390;-88
2021/03/16 08:30:43;;;;;;;6.20;2.00;;;5.70;99.90;;;;;;6012826;23;20421;-85
2021/03/16 08:33:30;;;;;;;8.20;2.20;;;5.70;99.90;;;;;;6159971;23;20520;-88
2021/03/16 08:36:16;;;;;;;8.60;2.83;;;5.80;99.90;;;;;;6185977;23;20407;-87
2021/03/16 08:39:02;;;;;;;5.83;1.87;;;5.80;99.90;;;;;;6195947;23;20484;-86
2021/03/16 08:41:56;;;;;;;9.83;3.33;;;5.80;99.90;;;;;;6195193;23;20535;-84
2021/03/16 08:44:42;;;;;;;8.07;2.37;;;5.90;99.90;;;;;;6199928;23;20445;-88
2021/03/16 08:47:29;;;;;;;8.40;2.90;;;5.90;99.90;;;;;;6197049;23;20425;-85
2021/03/16 08:50:23;;;;;;;10.60;3.20;;;5.90;99.90;;;;;;6196937;23;20423;-89
2021/03/16 08:53:15;;;;;;;8.00;3.30;;;5.90;99.90;;;;;;6197259;23;20431;-87
2021/03/16 08:56:01;;;;;;;5.87;2.13;;;5.90;99.90;;;;;;6197432;23;20398;-88
2021/03/16 08:58:49;;;;;;;9.03;3.80;;;5.80;99.90;;;;;;6280135;22;20451;-88
2021/03/16 09:01:35;;;;;;;6.43;2.47;;;5.90;99.90;;;;;;6293273;22;20410;-86
2021/03/16 09:04:22;;;;;;;9.68;2.70;;;5.90;99.90;;;;;;6292435;22;20409;-87
2021/03/16 09:07:08;;;;;;;4.57;2.10;;;6.10;99.90;;;;;;6284345;22;20157;-87
2021/03/16 09:10:04;;;;;;;6.90;2.40;;;6.00;99.90;;;;;;6293519;22;20488;-87
2021/03/16 09:12:51;;;;;;;8.75;3.28;;;6.10;99.90;;;;;;6291957;22;20505;-88
2021/03/16 09:15:36;;;;;;;7.20;2.30;;;6.20;99.90;;;;;;6292893;22;20193;-90
2021/03/16 09:18:23;;;;;;;9.87;3.77;;;6.20;99.90;;;;;;6292221;22;20443;-87
2021/03/16 09:21:10;;;;;;;11.90;3.37;;;6.20;99.90;;;;;;6292559;22;20401;-89
2021/03/16 09:24:01;;;;;;;12.70;3.27;;;6.20;99.90;;;;;;6293128;22;20400;-88
2021/03/16 09:26:57;;;;;;;6.07;2.50;;;6.30;99.90;;;;;;6292409;22;20403;-89
2021/03/16 09:29:44;;;;;;;11.53;2.87;;;6.30;99.90;;;;;;6292109;22;20443;-90
2021/03/16 09:32:35;;;;;;;7.73;2.30;;;6.30;99.90;;;;;;6292240;22;20722;-89
2021/03/16 11:52:15;;;;;;;;;;;;;;;;;;;;;
2021/03/16 11:55:18;;;;;;;7.50;1.93;;;8.70;99.90;;;;;;6206410;22;20208;-89
2021/03/16 12:10:09;;;;;;;7.73;3.03;;;8.20;99.90;;;;;;6085319;23;20446;-88
2021/03/16 12:13:02;;;;;;;8.90;2.60;;;8.20;99.90;;;;;;6202894;23;20394;-88
2021/03/16 12:51:30;;;;;;;7.07;2.20;;;8.70;99.90;;;;;;5788805;24;20444;-89
2021/03/16 12:54:19;;;;;;;8.70;2.00;;;8.80;99.90;;;;;;5966000;24;20529;-89
2021/03/16 12:57:05;;;;;;;8.93;2.00;;;8.80;99.90;;;;;;5964988;24;20409;-89
2021/03/16 12:59:51;;;;;;;8.53;2.30;;;8.80;99.90;;;;;;5964413;24;20425;-88
2021/03/16 13:02:39;;;;;;;8.37;2.50;;;8.90;99.90;;;;;;6032846;23;20409;-88
2021/03/16 13:05:25;;;;;;;10.17;2.00;;;9.00;99.90;;;;;;6141798;23;20440;-87
2021/03/16 13:08:14;;;;;;;4.87;1.50;;;9.00;99.90;;;;;;6136510;23;20480;-89
2021/03/16 13:11:00;;;;;;;5.32;2.10;;;9.10;99.90;;;;;;6134925;23;20437;-89
2021/03/16 13:13:46;;;;;;;7.20;1.83;;;9.30;99.90;;;;;;6136259;23;20245;-89
2021/03/16 13:16:33;;;;;;;6.60;1.80;;;9.30;99.90;;;;;;6137003;23;20476;-89
2021/03/16 13:19:27;;;;;;;5.63;1.73;;;9.20;99.90;;;;;;6135175;23;20421;-89
2021/03/16 13:29:09;;;;;;;4.63;1.87;;;9.20;99.90;;;;;;6009129;23;20475;-89
2021/03/16 13:31:59;;;;;;;4.77;1.50;;;9.30;99.90;;;;;;6144001;23;20471;-89
2021/03/16 13:34:45;;;;;;;3.03;1.50;;;9.20;99.90;;;;;;6158152;23;20492;-88
2021/03/16 13:37:31;;;;;;;7.13;1.80;;;9.20;99.90;;;;;;6136320;23;20413;-88
2021/03/16 13:40:19;;;;;;;6.67;2.00;;;9.10;99.90;;;;;;6136593;23;20448;-88
2021/03/16 13:43:05;;;;;;;4.77;1.47;;;9.10;99.90;;;;;;6135838;23;20469;-88
2021/03/16 13:45:56;;;;;;;6.07;2.03;;;9.20;99.90;;;;;;6136114;23;20389;-88
2021/03/16 14:30:45;;;;;;;8.27;2.10;;;9.10;99.90;;;;;;5915150;24;20432;-88
2021/03/16 14:45:30;;;;;;;;;;;;;;;;;;;;;
2021/03/16 15:02:49;;;;;;;3.80;1.60;;;9.00;99.90;;;;;;5902148;24;20429;-88
2021/03/16 15:05:36;;;;;;;5.72;2.17;;;9.00;99.90;;;;;;5992460;24;20418;-88
2021/03/16 15:08:24;;;;;;;7.57;2.10;;;9.00;99.90;;;;;;6046707;23;20318;-88
2021/03/16 15:26:39;;;;;;;3.90;1.40;;;8.70;99.90;;;;;;5881458;23;20436;-87
2021/03/16 15:33:10;;;;;;;;;;;;;;;;;;;;;
2021/03/16 15:57:08;;;;;;;4.07;1.77;;;8.20;99.90;;;;;;5897399;23;20445;-86
2021/03/16 15:59:54;;;;;;;5.30;1.53;;;8.10;99.90;;;;;;6079767;23;20409;-86
2021/03/16 16:02:41;;;;;;;8.03;2.73;;;8.00;99.90;;;;;;6105307;23;20405;-87
2021/03/16 16:05:28;;;;;;;4.40;1.80;;;8.00;99.90;;;;;;6105864;23;20435;-88
2021/03/16 16:08:14;;;;;;;4.77;1.77;;;7.90;99.90;;;;;;6105242;23;20425;-87
2021/03/16 16:11:03;;;;;;;6.40;2.47;;;7.90;99.90;;;;;;6106000;23;20458;-88
2021/03/16 16:13:49;;;;;;;5.43;2.27;;;7.80;99.90;;;;;;6105781;23;20394;-87
2021/03/16 16:16:35;;;;;;;5.50;1.90;;;7.80;99.90;;;;;;6136227;23;20389;-88
2021/03/16 16:19:22;;;;;;;4.53;1.67;;;7.70;99.90;;;;;;6134471;23;20439;-88
2021/03/16 16:22:09;;;;;;;6.97;2.80;;;7.70;99.90;;;;;;6136698;23;20742;-87
2021/03/16 16:24:54;;;;;;;6.23;1.87;;;7.60;99.90;;;;;;6137130;23;20433;-87
2021/03/16 16:27:40;;;;;;;5.40;2.03;;;7.60;99.90;;;;;;6136670;23;20436;-87
2021/03/16 16:30:29;;;;;;;6.23;1.97;;;7.50;99.90;;;;;;6137043;23;20802;-87
2021/03/16 16:33:15;;;;;;;4.90;2.27;;;7.50;99.90;;;;;;6136979;23;20396;-88
2021/03/16 16:36:01;;;;;;;5.97;2.40;;;7.40;99.90;;;;;;6136510;23;20943;-88
2021/03/16 16:38:46;;;;;;;5.27;1.90;;;7.40;99.90;;;;;;6133765;23;20512;-87
2021/03/16 16:41:33;;;;;;;5.57;2.67;;;7.40;99.90;;;;;;6135198;23;20420;-89
2021/03/16 16:44:18;;;;;;;8.48;3.05;;;7.40;99.90;;;;;;6134258;23;20456;-89
2021/03/16 16:47:09;;;;;;;5.17;2.00;;;7.40;99.90;;;;;;6135588;23;20165;-88
2021/03/16 16:49:55;;;;;;;4.87;1.90;;;7.40;99.90;;;;;;6135834;23;20432;-87
2021/03/16 16:52:40;;;;;;;7.40;2.10;;;7.30;99.90;;;;;;6125950;23;20413;-88
2021/03/16 16:55:26;;;;;;;8.43;3.63;;;7.30;99.90;;;;;;6136741;23;20237;-89
2021/03/16 16:58:12;;;;;;;7.87;2.93;;;7.20;99.90;;;;;;6136593;23;20794;-87
2021/03/16 17:00:58;;;;;;;15.00;2.80;;;7.20;99.90;;;;;;6138563;23;20400;-90
2021/03/16 17:03:46;;;;;;;7.33;2.90;;;7.10;99.90;;;;;;6136992;23;20488;-88
2021/03/16 17:06:32;;;;;;;10.33;4.60;;;7.00;99.90;;;;;;6137034;23;20468;-90
2021/03/16 17:09:17;;;;;;;10.23;4.23;;;7.00;99.90;;;;;;6136370;23;20512;-89
2021/03/16 17:12:04;;;;;;;7.40;4.23;;;7.00;99.90;;;;;;6136327;23;20401;-90
2021/03/16 17:14:50;;;;;;;10.73;3.63;;;6.90;99.90;;;;;;6136643;23;20567;-91
2021/03/16 17:17:37;;;;;;;6.50;2.23;;;6.90;99.90;;;;;;6136631;23;20397;-90
2021/03/16 17:20:24;;;;;;;8.83;4.17;;;6.80;99.90;;;;;;6137108;23;20397;-90
2021/03/16 17:23:10;;;;;;;10.33;5.23;;;6.80;99.90;;;;;;6157769;23;20440;-90
2021/03/16 17:25:56;;;;;;;8.13;2.87;;;6.90;99.90;;;;;;6137699;23;20418;-90
2021/03/16 17:28:42;;;;;;;6.00;2.87;;;6.80;99.90;;;;;;6137796;23;20444;-90
2021/03/16 17:31:28;;;;;;;8.60;4.40;;;6.80;99.90;;;;;;6136262;23;20397;-90
2021/03/16 17:34:17;;;;;;;10.90;2.93;;;6.70;99.90;;;;;;6136279;23;20428;-89
2021/03/16 17:37:04;;;;;;;9.23;2.67;;;6.70;99.90;;;;;;6136069;23;20932;-90
2021/03/16 17:39:50;;;;;;;6.63;2.37;;;6.70;99.90;;;;;;6135944;23;20492;-89
2021/03/16 17:42:36;;;;;;;13.20;3.20;;;6.60;99.90;;;;;;6136224;23;20788;-89
2021/03/16 17:45:21;;;;;;;7.50;2.43;;;6.60;99.90;;;;;;6135834;23;20401;-89
2021/03/16 17:48:16;;;;;;;5.10;2.30;;;6.50;99.90;;;;;;6136092;23;20435;-89
2021/03/16 17:51:03;;;;;;;7.60;2.00;;;6.50;99.90;;;;;;6135877;23;20766;-90
2021/03/16 17:53:50;;;;;;;7.80;2.30;;;6.50;99.90;;;;;;6159146;23;20491;-90
2021/03/16 17:56:36;;;;;;;6.83;2.10;;;6.40;99.90;;;;;;6197841;23;20423;-90
2021/03/16 17:59:22;;;;;;;5.00;2.90;;;6.40;99.90;;;;;;6197561;23;20953;-89
2021/03/16 18:02:10;;;;;;;6.93;2.83;;;6.30;99.90;;;;;;6197869;23;20438;-90
2021/03/16 18:04:57;;;;;;;5.50;2.60;;;6.40;99.90;;;;;;6197839;23;20383;-90
2021/03/16 18:07:42;;;;;;;5.20;2.20;;;6.30;99.90;;;;;;6197888;23;20434;-90
2021/03/16 18:10:29;;;;;;;5.83;2.87;;;6.30;99.90;;;;;;6199455;23;20718;-90
2021/03/16 18:13:15;;;;;;;4.83;3.30;;;6.30;99.90;;;;;;6200445;23;20415;-90
2021/03/16 18:16:01;;;;;;;6.97;1.93;;;6.30;99.90;;;;;;6199325;23;20528;-90
2021/03/16 18:18:47;;;;;;;8.80;3.00;;;6.30;99.90;;;;;;6199522;23;20450;-90
2021/03/16 18:21:33;;;;;;;6.23;2.50;;;6.20;99.90;;;;;;6198293;23;20410;-90
2021/03/16 18:24:19;;;;;;;4.17;2.50;;;6.10;99.90;;;;;;6198492;23;20532;-90
2021/03/16 18:27:06;;;;;;;3.87;1.97;;;6.10;99.90;;;;;;6199393;23;20434;-89
2021/03/16 18:29:52;;;;;;;5.70;2.30;;;6.10;99.90;;;;;;6199513;23;20402;-92
2021/03/16 18:32:38;;;;;;;6.97;2.57;;;6.10;99.90;;;;;;6204203;23;20415;-88
2021/03/16 18:35:24;;;;;;;4.70;1.50;;;6.00;99.90;;;;;;6198131;23;20429;-89
2021/03/16 18:38:10;;;;;;;5.17;1.37;;;6.00;99.90;;;;;;6197788;23;20434;-89
2021/03/16 18:40:57;;;;;;;7.15;2.10;;;6.00;99.90;;;;;;6197694;23;20486;-89
2021/03/16 18:43:44;;;;;;;7.10;1.60;;;6.00;99.90;;;;;;6197969;23;20180;-89
2021/03/16 18:46:30;;;;;;;8.20;3.10;;;6.00;99.90;;;;;;6197242;23;20446;-89
2021/03/16 18:49:16;;;;;;;4.63;1.80;;;5.90;99.90;;;;;;6196956;23;20485;-91
2021/03/16 18:52:02;;;;;;;2.97;1.67;;;5.90;99.90;;;;;;6198037;23;20231;-89
2021/03/16 18:54:48;;;;;;;4.97;2.20;;;5.80;99.90;;;;;;6197971;23;20510;-90
2021/03/16 18:57:34;;;;;;;3.27;1.90;;;5.80;99.90;;;;;;6192407;23;20431;-90
2021/03/16 19:00:22;;;;;;;4.50;2.47;;;5.80;99.90;;;;;;6198499;23;20414;-91
2021/03/16 19:03:08;;;;;;;3.53;2.40;;;5.70;99.90;;;;;;6197903;23;20483;-90
2021/03/16 19:05:54;;;;;;;4.00;2.30;;;5.70;99.90;;;;;;6203854;23;20978;-90
2021/03/16 19:08:40;;;;;;;5.70;2.80;;;5.60;99.90;;;;;;6197950;23;20434;-90
2021/03/16 19:11:26;;;;;;;5.10;2.53;;;5.60;99.90;;;;;;6197806;23;20479;-90
2021/03/16 19:14:12;;;;;;;4.73;3.73;;;5.50;99.90;;;;;;6211862;22;20446;-90
2021/03/16 19:16:59;;;;;;;6.90;3.30;;;5.50;99.90;;;;;;6215627;22;20487;-90
2021/03/16 19:19:46;;;;;;;5.00;3.20;;;5.40;99.90;;;;;;6197482;23;20465;-88
2021/03/16 19:22:33;;;;;;;6.30;2.23;;;5.40;99.90;;;;;;6197410;23;20404;-89
2021/03/16 19:25:19;;;;;;;4.10;2.00;;;5.40;99.90;;;;;;6197422;23;20391;-89
2021/03/16 19:28:05;;;;;;;8.73;2.83;;;5.30;99.90;;;;;;6197666;23;20481;-89
2021/03/16 19:30:51;;;;;;;4.50;1.73;;;5.20;99.90;;;;;;6197499;23;20866;-90
2021/03/16 19:33:39;;;;;;;3.30;2.07;;;5.20;99.90;;;;;;6197437;23;20397;-89
2021/03/16 19:36:25;;;;;;;5.50;2.90;;;5.10;99.90;;;;;;6197418;23;20450;-89
2021/03/16 19:39:11;;;;;;;6.07;1.53;;;5.10;99.90;;;;;;6197315;23;20937;-90
2021/03/16 19:42:00;;;;;;;3.20;2.10;;;5.10;99.90;;;;;;6201462;23;20882;-89
2021/03/16 19:44:46;;;;;;;4.87;2.60;;;5.10;99.90;;;;;;6198108;23;20442;-90
2021/03/16 19:47:32;;;;;;;3.77;1.87;;;5.10;99.90;;;;;;6196853;23;20399;-89
2021/03/16 19:50:19;;;;;;;4.30;1.40;;;4.90;99.90;;;;;;6207884;23;20465;-90
2021/03/16 19:53:06;;;;;;;3.20;1.83;;;5.00;99.90;;;;;;6227610;23;20442;-90
2021/03/16 19:55:53;;;;;;;3.13;2.07;;;4.90;99.90;;;;;;6228285;23;20430;-90
2021/03/16 19:58:39;;;;;;;6.33;1.70;;;4.90;99.90;;;;;;6229791;23;20429;-89
2021/03/16 20:01:27;;;;;;;4.57;2.17;;;4.90;99.90;;;;;;6230176;23;20478;-89
2021/03/16 20:04:13;;;;;;;2.60;1.67;;;4.80;99.90;;;;;;6229960;23;20393;-89
2021/03/16 20:07:00;;;;;;;4.60;1.73;;;4.80;99.90;;;;;;6230671;23;20409;-89
2021/03/16 20:09:46;;;;;;;4.50;2.30;;;4.80;99.90;;;;;;6230801;23;20486;-88
2021/03/16 20:12:32;;;;;;;4.40;2.57;;;4.70;99.90;;;;;;6229587;23;20584;-89
2021/03/16 20:15:18;;;;;;;5.50;2.70;;;4.80;99.90;;;;;;6229589;23;20422;-88
2021/03/16 20:18:04;;;;;;;5.13;2.73;;;4.70;99.90;;;;;;6229523;23;20433;-89
2021/03/16 20:20:53;;;;;;;6.00;2.80;;;4.70;99.90;;;;;;6229513;23;20414;-89
2021/03/16 20:23:43;;;;;;;5.23;2.70;;;4.70;99.90;;;;;;6229090;23;20398;-89
2021/03/16 20:26:30;;;;;;;5.53;2.50;;;4.70;99.90;;;;;;6229159;23;20389;-89
2021/03/16 20:29:17;;;;;;;3.87;2.67;;;4.60;99.90;;;;;;6228943;23;20944;-89
2021/03/16 20:32:03;;;;;;;4.87;2.43;;;4.70;99.90;;;;;;6229407;23;20405;-89
2021/03/16 20:34:51;;;;;;;6.60;2.77;;;4.60;99.90;;;;;;6229307;23;20837;-90
2021/03/16 20:37:37;;;;;;;4.23;2.50;;;4.60;99.90;;;;;;6229394;23;20441;-89
2021/03/16 20:40:24;;;;;;;4.40;2.60;;;4.70;99.90;;;;;;6229381;23;20397;-90
2021/03/16 20:43:11;;;;;;;4.50;2.43;;;4.60;99.90;;;;;;6230547;23;20394;-91
2021/03/16 20:45:57;;;;;;;4.53;3.27;;;4.60;99.90;;;;;;6231751;23;20783;-90
2021/03/16 20:48:46;;;;;;;4.10;2.57;;;4.60;99.90;;;;;;6229234;23;20480;-89
2021/03/16 20:51:32;;;;;;;4.53;2.67;;;4.60;99.90;;;;;;6228917;23;20521;-88
2021/03/16 20:54:19;;;;;;;6.13;2.07;;;4.60;99.90;;;;;;6229451;23;20426;-89
2021/03/16 20:57:09;;;;;;;6.73;2.97;;;4.60;99.90;;;;;;6229116;23;20391;-89
2021/03/16 20:59:55;;;;;;;4.33;3.13;;;4.60;99.90;;;;;;6228952;23;20395;-90
2021/03/16 21:02:42;;;;;;;5.35;3.58;;;4.60;99.90;;;;;;6229080;23;20487;-89
2021/03/16 21:05:29;;;;;;;3.87;2.73;;;4.70;99.90;;;;;;6230039;23;20612;-91
2021/03/16 21:08:17;;;;;;;5.63;2.90;;;4.70;99.90;;;;;;6229379;23;20456;-90
2021/03/16 21:11:03;;;;;;;5.23;2.60;;;4.60;99.90;;;;;;6252755;23;20426;-90
2021/03/16 21:13:51;;;;;;;8.83;2.87;;;4.60;99.90;;;;;;6228777;23;20449;-90
2021/03/16 21:16:37;;;;;;;8.00;2.63;;;4.50;99.90;;;;;;6229054;23;20425;-89
2021/03/16 21:19:23;;;;;;;6.17;1.87;;;4.50;99.90;;;;;;6229129;23;20517;-90
2021/03/16 21:22:09;;;;;;;5.53;2.33;;;4.40;99.90;;;;;;6228361;23;20445;-89
2021/03/16 21:24:54;;;;;;;6.60;2.63;;;4.40;99.90;;;;;;6229459;23;20453;-90
2021/03/16 21:27:40;;;;;;;4.20;2.57;;;4.30;99.90;;;;;;6229203;23;20488;-89
2021/03/16 21:30:28;;;;;;;6.20;2.03;;;4.30;99.90;;;;;;6229025;23;20413;-90
2021/03/16 21:33:17;;;;;;;4.20;1.83;;;4.30;99.90;;;;;;6228721;23;20399;-89
2021/03/16 21:36:04;;;;;;;5.17;2.20;;;4.30;99.90;;;;;;6228890;23;20972;-89
2021/03/16 21:38:52;;;;;;;6.70;2.40;;;4.20;99.90;;;;;;6228624;23;20435;-89
2021/03/16 21:41:39;;;;;;;3.87;1.83;;;4.20;99.90;;;;;;6228979;23;20494;-90
2021/03/16 21:44:29;;;;;;;4.20;1.83;;;4.20;99.90;;;;;;6229040;23;20398;-90
2021/03/16 21:47:27;;;;;;;5.93;2.27;;;4.20;99.90;;;;;;6228895;23;20398;-90
2021/03/16 22:02:26;;;;;;;7.10;2.83;;;4.20;99.90;;;;;;6107410;23;20450;-89
2021/03/16 22:09:46;;;;;;;;;;;;;;;;;;;;;
2021/03/16 22:24:49;;;;;;;4.03;2.63;;;4.10;99.90;;;;;;6139291;23;20425;-89
2021/03/16 23:47:40;;;;;;;7.30;3.87;;;3.90;99.90;;;;;;5981435;23;20460;-89
